Time;durP1;ratioP1;P1;durP2;ratioP2;P2;SDS_P1;SDS_P2;PMS_P1;PMS_P2;Temp;Humidity;BMP_temperature;BMP_pressure;BME280_temperature;BME280_humidity;BME280_pressure;Samples;Min_cycle;Max_cycle;Signal;HPM_P1;HPM_P2
2020/12/30 00:00:46;;;;;;;;;;;;;;;21.10;36.65;99293.44;5077528;28;1889;-71
2020/12/30 00:03:11;;;;;;;;;;;;;;;21.11;36.49;99299.81;5077550;28;926;-71
2020/12/30 00:05:37;;;;;;;;;;;;;;;21.10;36.58;99292.66;5077452;28;743;-71
2020/12/30 00:08:04;;;;;;;;;;;;;;;21.10;36.42;99296.25;5077366;28;1262;-72
2020/12/30 00:10:29;;;;;;;;;;;;;;;21.09;36.54;99297.47;5077612;28;828;-72
2020/12/30 00:12:55;;;;;;;;;;;;;;;21.09;36.64;99283.44;5077330;28;1104;-71
2020/12/30 00:15:20;;;;;;;;;;;;;;;21.09;36.45;99286.25;5077512;28;921;-71
2020/12/30 00:17:45;;;;;;;;;;;;;;;21.09;36.59;99282.66;5077309;28;1337;-72
2020/12/30 00:20:14;;;;;;;;;;;;;;;21.09;36.46;99297.47;5077221;28;1897;-72
2020/12/30 00:22:40;;;;;;;;;;;;;;;21.09;36.52;99291.84;5077125;28;896;-71
2020/12/30 00:25:06;;;;;;;;;;;;;;;21.09;36.41;99285.47;5077184;28;789;-71
2020/12/30 00:27:33;;;;;;;;;;;;;;;21.09;36.59;99303.06;5076572;28;1274;-72
2020/12/30 00:29:59;;;;;;;;;;;;;;;21.09;36.36;99296.69;5076993;28;1067;-72
2020/12/30 00:32:24;;;;;;;;;;;;;;;21.09;36.57;99302.31;5077065;28;880;-71
2020/12/30 00:34:50;;;;;;;;;;;;;;;21.09;36.42;99291.06;5077108;28;853;-71
2020/12/30 00:37:15;;;;;;;;;;;;;;;21.08;36.46;99300.75;5076800;28;1274;-72
2020/12/30 00:39:40;;;;;;;;;;;;;;;21.07;36.37;99299.94;5076801;28;1898;-72
2020/12/30 00:42:06;;;;;;;;;;;;;;;21.07;36.24;99308.38;5077484;28;836;-71
2020/12/30 00:44:32;;;;;;;;;;;;;;;21.07;36.36;99297.13;5076746;28;903;-71
2020/12/30 00:46:58;;;;;;;;;;;;;;;21.08;36.38;99306.38;5076737;28;1349;-72
2020/12/30 00:49:24;;;;;;;;;;;;;;;21.07;36.35;99307.59;5076652;28;817;-71
2020/12/30 00:51:51;;;;;;;;;;;;;;;21.07;36.21;99297.13;5076599;28;944;-71
2020/12/30 00:54:16;;;;;;;;;;;;;;;21.08;36.42;99303.56;5076616;28;853;-71
2020/12/30 00:56:41;;;;;;;;;;;;;;;21.07;36.33;99308.38;5076289;28;1269;-71
2020/12/30 00:59:07;;;;;;;;;;;;;;;21.08;36.29;99311.97;5076771;28;1975;-72
2020/12/30 01:01:32;;;;;;;;;;;;;;;21.07;36.33;99313.19;5076873;28;939;-72
2020/12/30 01:03:57;;;;;;;;;;;;;;;21.07;36.29;99316.00;5076478;28;786;-71
2020/12/30 01:06:23;;;;;;;;;;;;;;;21.08;36.35;99320.41;5076670;28;1765;-69
2020/12/30 01:08:48;;;;;;;;;;;;;;;21.07;36.36;99324.44;5076593;28;846;-69
2020/12/30 01:11:13;;;;;;;;;;;;;;;21.07;36.38;99330.81;5076474;28;987;-69
2020/12/30 01:13:39;;;;;;;;;;;;;;;21.07;36.37;99330.81;5076880;28;880;-69
2020/12/30 01:16:04;;;;;;;;;;;;;;;21.06;36.16;99326.44;5076529;28;1365;-69
2020/12/30 01:18:29;;;;;;;;;;;;;;;21.06;36.32;99326.44;5076460;28;1070;-69
2020/12/30 01:21:02;;;;;;;;;;;;;;;21.06;36.32;99328.44;5076421;28;1955;-69
2020/12/30 01:23:28;;;;;;;;;;;;;;;21.04;36.21;99332.50;5076262;28;999;-72
2020/12/30 01:25:55;;;;;;;;;;;;;;;21.06;36.29;99334.06;5076015;28;1273;-71
2020/12/30 01:28:20;;;;;;;;;;;;;;;21.06;36.25;99339.69;5075975;28;955;-72
2020/12/30 01:30:47;;;;;;;;;;;;;;;21.06;36.19;99345.28;5075875;28;924;-72
2020/12/30 01:33:12;;;;;;;;;;;;;;;21.06;36.26;99345.28;5076043;28;1148;-71
2020/12/30 01:35:38;;;;;;;;;;;;;;;21.05;36.25;99352.94;5075738;28;813;-71
2020/12/30 01:38:03;;;;;;;;;;;;;;;21.05;36.15;99350.13;5075513;28;1246;-72
2020/12/30 01:40:28;;;;;;;;;;;;;;;21.05;36.22;99355.75;5074975;28;1902;-71
2020/12/30 01:42:53;;;;;;;;;;;;;;;21.06;36.15;99353.72;5075621;28;1023;-72
2020/12/30 01:45:19;;;;;;;;;;;;;;;21.05;36.13;99350.13;5075453;28;904;-71
2020/12/30 01:47:48;;;;;;;;;;;;;;;21.06;36.18;99359.31;5075795;28;1262;-72
2020/12/30 01:50:14;;;;;;;;;;;;;;;21.03;36.12;99359.00;5075384;28;999;-72
2020/12/30 01:52:41;;;;;;;;;;;;;;;21.04;36.26;99365.41;5075528;28;821;-71
2020/12/30 01:55:07;;;;;;;;;;;;;;;21.04;36.22;99362.59;5075269;28;828;-71
2020/12/30 01:57:34;;;;;;;;;;;;;;;21.04;36.27;99359.78;5075298;28;1250;-72
2020/12/30 01:59:59;;;;;;;;;;;;;;;21.04;36.29;99371.03;5075346;28;1949;-72
2020/12/30 02:02:28;;;;;;;;;;;;;;;21.03;36.25;99381.44;5075624;28;844;-72
2020/12/30 02:04:56;;;;;;;;;;;;;;;21.03;36.10;99378.63;5075045;28;868;-71
2020/12/30 02:07:24;;;;;;;;;;;;;;;21.03;36.17;99377.84;5075168;28;1257;-71
2020/12/30 02:09:50;;;;;;;;;;;;;;;21.02;36.04;99379.88;5075143;28;955;-72
2020/12/30 02:12:16;;;;;;;;;;;;;;;21.03;36.16;99381.44;5075314;28;943;-72
2020/12/30 02:14:42;;;;;;;;;;;;;;;21.03;36.15;99375.81;5075009;28;923;-71
2020/12/30 02:17:15;;;;;;;;;;;;;;;21.03;36.12;99369.44;5075103;28;1344;-71
2020/12/30 02:19:41;;;;;;;;;;;;;;;21.04;35.95;99373.81;5075172;28;1890;-72
2020/12/30 02:22:09;;;;;;;;;;;;;;;21.03;36.16;99378.63;5075291;28;933;-72
2020/12/30 02:24:36;;;;;;;;;;;;;;;21.03;36.19;99375.81;5074930;28;1095;-71
2020/12/30 02:27:04;;;;;;;;;;;;;;;21.03;36.11;99375.06;5074847;28;1356;-72
2020/12/30 02:29:30;;;;;;;;;;;;;;;21.03;36.12;99372.25;5074952;28;976;-72
2020/12/30 02:31:56;;;;;;;;;;;;;;;21.03;35.96;99375.06;5075030;28;857;-72
2020/12/30 02:34:21;;;;;;;;;;;;;;;21.02;36.08;99376.28;5075316;28;892;-72
2020/12/30 02:36:47;;;;;;;;;;;;;;;21.01;35.98;99372.69;5074688;28;1262;-72
2020/12/30 02:39:12;;;;;;;;;;;;;;;21.03;36.09;99375.06;5074717;28;1898;-72
2020/12/30 02:41:38;;;;;;;;;;;;;;;21.00;36.11;99373.91;5074879;28;912;-72
2020/12/30 02:44:05;;;;;;;;;;;;;;;21.01;36.03;99380.34;5074739;28;999;-72
2020/12/30 02:46:30;;;;;;;;;;;;;;;21.00;36.05;99379.53;5074507;28;1270;-72
2020/12/30 02:48:56;;;;;;;;;;;;;;;21.00;36.05;99381.56;5074966;28;951;-71
2020/12/30 02:51:21;;;;;;;;;;;;;;;21.00;36.09;99381.56;5074548;28;856;-72
2020/12/30 02:53:47;;;;;;;;;;;;;;;21.00;35.96;99382.34;5074749;28;884;-72
2020/12/30 02:56:12;;;;;;;;;;;;;;;20.99;35.96;99383.59;5074527;28;1345;-71
2020/12/30 02:58:37;;;;;;;;;;;;;;;21.00;36.03;99384.38;5074659;28;872;-72
2020/12/30 03:01:08;;;;;;;;;;;;;;;20.99;35.97;99385.63;5074566;28;1965;-71
2020/12/30 03:03:34;;;;;;;;;;;;;;;20.98;36.01;99387.63;5074766;28;968;-72
2020/12/30 03:05:59;;;;;;;;;;;;;;;20.98;36.13;99390.41;5074395;28;1360;-71
2020/12/30 03:08:24;;;;;;;;;;;;;;;20.98;35.96;99387.63;5074497;28;932;-72
2020/12/30 03:10:50;;;;;;;;;;;;;;;20.97;36.03;99386.06;5074555;28;828;-72
2020/12/30 03:13:15;;;;;;;;;;;;;;;20.98;36.05;99396.03;5074483;28;1031;-72
2020/12/30 03:15:40;;;;;;;;;;;;;;;20.98;36.01;99384.03;5074587;28;860;-71
2020/12/30 03:18:05;;;;;;;;;;;;;;;20.96;36.13;99381.69;5074291;28;1413;-72
2020/12/30 03:20:31;;;;;;;;;;;;;;;20.96;36.00;99387.28;5074450;28;1902;-72
2020/12/30 03:22:56;;;;;;;;;;;;;;;20.98;35.92;99398.06;5074353;28;856;-72
2020/12/30 03:25:21;;;;;;;;;;;;;;;20.96;36.00;99392.91;5074118;28;995;-71
2020/12/30 03:27:47;;;;;;;;;;;;;;;20.97;36.01;99391.66;5074450;28;1254;-72
2020/12/30 03:30:12;;;;;;;;;;;;;;;20.96;36.04;99394.94;5074278;28;896;-72
2020/12/30 03:32:37;;;;;;;;;;;;;;;20.96;35.97;99397.72;5074473;28;983;-72
2020/12/30 03:35:03;;;;;;;;;;;;;;;20.97;36.06;99394.47;5074592;28;951;-71
2020/12/30 03:37:29;;;;;;;;;;;;;;;20.96;35.94;99397.72;5074545;28;1349;-72
2020/12/30 03:39:54;;;;;;;;;;;;;;;20.95;36.14;99401.75;5074097;28;1902;-71
2020/12/30 03:42:19;;;;;;;;;;;;;;;20.96;35.89;99400.53;5074290;28;892;-71
2020/12/30 03:44:44;;;;;;;;;;;;;;;20.95;36.00;99402.53;5073944;28;1035;-71
2020/12/30 03:47:10;;;;;;;;;;;;;;;20.95;36.06;99410.94;5074168;28;1361;-72
2020/12/30 03:49:35;;;;;;;;;;;;;;;20.95;35.99;99405.34;5074124;28;797;-72
2020/12/30 03:52:02;;;;;;;;;;;;;;;20.96;36.00;99400.53;5074133;28;972;-72
2020/12/30 03:54:28;;;;;;;;;;;;;;;20.95;35.99;99398.94;5074008;28;864;-71
2020/12/30 03:56:53;;;;;;;;;;;;;;;20.94;35.98;99398.19;5073992;28;1250;-71
2020/12/30 03:59:18;;;;;;;;;;;;;;;20.94;36.00;99398.19;5073952;28;1897;-72
2020/12/30 04:01:44;;;;;;;;;;;;;;;20.94;35.96;99400.22;5074436;28;805;-71
2020/12/30 04:04:11;;;;;;;;;;;;;;;20.94;35.94;99400.22;5076314;28;923;-72
2020/12/30 04:06:37;;;;;;;;;;;;;;;20.93;36.01;99402.22;5077231;28;1348;-71
2020/12/30 04:09:02;;;;;;;;;;;;;;;20.93;35.91;99399.41;5077509;28;877;-72
2020/12/30 04:11:28;;;;;;;;;;;;;;;20.92;36.06;99400.66;5077672;28;986;-72
2020/12/30 04:13:53;;;;;;;;;;;;;;;20.93;35.87;99412.66;5077396;28;924;-71
2020/12/30 04:16:22;;;;;;;;;;;;;;;20.92;36.02;99417.50;5077164;28;1329;-71
2020/12/30 04:18:48;;;;;;;;;;;;;;;20.92;35.94;99422.28;5077714;28;857;-69
2020/12/30 04:21:20;;;;;;;;;;;;;;;20.92;35.96;99427.91;5077808;28;1885;-69
2020/12/30 04:23:45;;;;;;;;;;;;;;;20.92;35.99;99431.50;5077331;28;873;-72
2020/12/30 04:26:12;;;;;;;;;;;;;;;20.92;35.96;99433.50;5076981;28;1250;-71
2020/12/30 04:28:38;;;;;;;;;;;;;;;20.92;35.93;99436.31;5077418;28;793;-72
2020/12/30 04:31:03;;;;;;;;;;;;;;;20.91;35.92;99438.34;5077144;28;1078;-71
2020/12/30 04:33:28;;;;;;;;;;;;;;;20.91;35.97;99441.16;5077424;28;893;-72
2020/12/30 04:35:54;;;;;;;;;;;;;;;20.91;36.06;99449.56;5077231;28;1332;-71
2020/12/30 04:38:19;;;;;;;;;;;;;;;20.92;35.93;99448.34;5076782;28;1200;-72
2020/12/30 04:40:44;;;;;;;;;;;;;;;20.92;35.96;99441.94;5076828;28;1895;-72
2020/12/30 04:43:14;;;;;;;;;;;;;;;20.92;35.93;99447.53;5076754;28;904;-71
2020/12/30 04:45:40;;;;;;;;;;;;;;;20.92;36.00;99450.34;5076745;28;1063;-71
2020/12/30 04:48:06;;;;;;;;;;;;;;;20.92;36.00;99461.56;5076986;28;1335;-72
2020/12/30 04:50:32;;;;;;;;;;;;;;;20.91;35.90;99460.00;5076630;28;814;-72
2020/12/30 04:52:57;;;;;;;;;;;;;;;20.91;35.91;99460.78;5076800;28;952;-72
2020/12/30 04:55:24;;;;;;;;;;;;;;;20.91;35.79;99465.63;5076513;28;932;-71
2020/12/30 04:58:05;;;;;;;;;;;;;;;20.92;35.88;99459.56;5076575;28;1251;-71
2020/12/30 05:00:33;;;;;;;;;;;;;;;20.90;35.78;99462.00;5076654;28;1890;-71
2020/12/30 05:03:05;;;;;;;;;;;;;;;20.91;35.81;99469.19;5076515;28;869;-71
2020/12/30 05:05:31;;;;;;;;;;;;;;;20.91;35.93;99474.03;5076377;28;992;-71
2020/12/30 05:07:57;;;;;;;;;;;;;;;20.92;35.93;99479.19;5076330;28;1262;-71
2020/12/30 05:10:22;;;;;;;;;;;;;;;20.91;35.86;99482.44;5076793;28;908;-72
2020/12/30 05:12:48;;;;;;;;;;;;;;;20.92;35.87;99475.59;5076306;28;979;-71
2020/12/30 05:15:13;;;;;;;;;;;;;;;20.92;35.81;99481.19;5075965;28;1078;-71
2020/12/30 05:17:39;;;;;;;;;;;;;;;20.92;35.85;99479.19;5076192;28;1258;-72
2020/12/30 05:20:08;;;;;;;;;;;;;;;20.92;35.83;99481.19;5076077;28;1894;-71
2020/12/30 05:22:33;;;;;;;;;;;;;;;20.92;35.88;99489.63;5076023;28;833;-71
2020/12/30 05:25:05;;;;;;;;;;;;;;;20.92;35.84;99492.41;5075910;28;900;-71
2020/12/30 05:27:31;;;;;;;;;;;;;;;20.92;35.73;99489.63;5075973;28;1310;-72
2020/12/30 05:29:56;;;;;;;;;;;;;;;20.92;35.83;99500.84;5074606;28;1222;-72
2020/12/30 05:32:22;;;;;;;;;;;;;;;20.92;35.76;99484.00;5075948;28;980;-72
2020/12/30 05:34:47;;;;;;;;;;;;;;;20.92;35.74;99492.41;5075813;28;908;-71
2020/12/30 05:37:15;;;;;;;;;;;;;;;20.93;35.71;99494.00;5075890;28;1362;-71
2020/12/30 05:39:41;;;;;;;;;;;;;;;20.95;35.62;99495.13;5075581;28;1903;-72
2020/12/30 05:42:19;;;;;;;;;;;;;;;20.95;35.56;99495.13;5075827;28;923;-71
2020/12/30 05:44:46;;;;;;;;;;;;;;;20.96;35.61;99502.31;5075780;28;956;-72
2020/12/30 05:47:18;;;;;;;;;;;;;;;20.97;35.34;99501.09;5075588;28;1265;-71
2020/12/30 05:49:46;;;;;;;;;;;;;;;20.97;35.59;99501.09;5075502;28;984;-72
2020/12/30 05:52:18;;;;;;;;;;;;;;;20.98;35.52;99501.88;5076091;28;916;-71
2020/12/30 05:54:50;;;;;;;;;;;;;;;20.99;35.58;99515.44;5075548;28;873;-72
2020/12/30 05:57:29;;;;;;;;;;;;;;;21.00;35.42;99516.22;5075333;28;1254;-72
2020/12/30 05:59:57;;;;;;;;;;;;;;;21.00;35.47;99514.19;5075349;28;1957;-72
2020/12/30 06:02:25;;;;;;;;;;;;;;;21.01;35.58;99532.63;5075211;28;884;-72
2020/12/30 06:04:52;;;;;;;;;;;;;;;21.00;35.29;99531.03;5075159;28;988;-71
2020/12/30 06:07:18;;;;;;;;;;;;;;;21.01;35.53;99531.84;5075295;28;1258;-72
2020/12/30 06:09:49;;;;;;;;;;;;;;;21.01;35.44;99540.25;5075196;28;860;-71
2020/12/30 06:12:22;;;;;;;;;;;;;;;21.01;35.44;99538.22;5075336;28;1052;-71
2020/12/30 06:14:49;;;;;;;;;;;;;;;21.03;35.28;99537.78;5074911;28;793;-71
2020/12/30 06:17:24;;;;;;;;;;;;;;;21.01;35.37;99541.03;5075197;28;1250;-71
2020/12/30 06:19:52;;;;;;;;;;;;;;;21.01;35.33;99538.22;5075118;28;1953;-72
2020/12/30 06:22:20;;;;;;;;;;;;;;;21.01;35.22;99543.84;5075037;28;801;-72
2020/12/30 06:24:50;;;;;;;;;;;;;;;21.02;35.25;99547.44;5075071;28;895;-71
2020/12/30 06:27:18;;;;;;;;;;;;;;;21.03;35.22;99549.00;5074343;28;1432;-71
2020/12/30 06:29:44;;;;;;;;;;;;;;;21.02;35.31;99553.84;5074899;28;852;-72
2020/12/30 06:32:09;;;;;;;;;;;;;;;21.02;35.38;99559.44;5075193;28;922;-72
2020/12/30 06:34:35;;;;;;;;;;;;;;;21.01;35.28;99557.88;5074768;28;850;-71
2020/12/30 06:37:03;;;;;;;;;;;;;;;21.01;35.25;99563.47;5075109;28;1301;-71
2020/12/30 06:39:29;;;;;;;;;;;;;;;21.01;35.38;99563.47;5074661;28;1898;-72
2020/12/30 06:42:04;;;;;;;;;;;;;;;21.02;35.35;99558.66;5074957;28;936;-71
2020/12/30 06:44:43;;;;;;;;;;;;;;;21.01;35.27;99571.91;5074979;28;893;-71
2020/12/30 06:47:14;;;;;;;;;;;;;;;21.02;35.24;99575.47;5074684;28;1274;-71
2020/12/30 06:49:40;;;;;;;;;;;;;;;21.01;35.20;99585.16;5074813;28;1047;-72
2020/12/30 06:52:25;;;;;;;;;;;;;;;21.01;35.20;99580.31;5074731;28;876;-71
2020/12/30 06:54:50;;;;;;;;;;;;;;;21.01;35.29;99588.72;5074674;28;817;-71
2020/12/30 06:57:51;;;;;;;;;;;;;;;21.03;35.19;99596.72;5074604;28;1322;-71
2020/12/30 07:00:31;;;;;;;;;;;;;;;21.01;35.31;99596.38;5012982;28;1891;-72
2020/12/30 07:03:19;;;;;;;;;;;;;;;21.01;35.22;99593.56;5067945;28;894;-72
2020/12/30 07:05:46;;;;;;;;;;;;;;;21.01;35.11;99593.56;5074513;28;852;-71
2020/12/30 07:08:31;;;;;;;;;;;;;;;21.02;35.23;99598.75;5074822;28;864;-71
2020/12/30 07:10:57;;;;;;;;;;;;;;;21.02;35.24;99595.94;5074557;28;1079;-72
2020/12/30 07:13:27;;;;;;;;;;;;;;;21.01;35.18;99602.75;5074832;28;1055;-72
2020/12/30 07:16:19;;;;;;;;;;;;;;;21.02;35.17;99607.16;5074209;28;1344;-71
2020/12/30 07:18:50;;;;;;;;;;;;;;;21.02;35.16;99603.53;5074608;28;903;-72
2020/12/30 07:21:17;;;;;;;;;;;;;;;21.03;35.16;99605.13;5074286;28;1890;-72
2020/12/30 07:23:44;;;;;;;;;;;;;;;21.03;35.08;99605.13;5074404;28;821;-72
2020/12/30 07:26:17;;;;;;;;;;;;;;;21.03;35.16;99614.31;5074236;28;1274;-71
2020/12/30 07:28:44;;;;;;;;;;;;;;;21.04;35.05;99609.53;5074370;28;899;-72
2020/12/30 07:31:10;;;;;;;;;;;;;;;21.04;34.92;99609.53;5074401;28;856;-72
2020/12/30 07:33:37;;;;;;;;;;;;;;;21.04;35.12;99606.72;5074318;28;888;-72
2020/12/30 07:36:12;;;;;;;;;;;;;;;21.03;35.04;99610.75;5074085;28;1285;-71
2020/12/30 07:38:38;;;;;;;;;;;;;;;21.03;35.11;99614.31;5075970;28;904;-72
2020/12/30 07:41:10;;;;;;;;;;;;;;;21.03;35.04;99614.31;5077888;28;1960;-72
2020/12/30 07:43:44;;;;;;;;;;;;;;;21.03;35.02;99619.94;5078204;28;834;-72
2020/12/30 07:46:14;;;;;;;;;;;;;;;21.03;35.02;99638.81;5076380;28;1558;-72
2020/12/30 07:48:40;;;;;;;;;;;;;;;21.03;35.04;99638.81;5077826;28;1080;-72
2020/12/30 07:51:05;;;;;;;;;;;;;;;21.03;35.17;99652.81;5077888;28;928;-71
2020/12/30 07:53:30;;;;;;;;;;;;;;;21.04;35.13;99648.81;5078100;28;829;-72
2020/12/30 07:55:55;;;;;;;;;;;;;;;21.04;35.04;99655.19;5077727;28;1289;-71
2020/12/30 07:58:21;;;;;;;;;;;;;;;21.03;35.06;99656.41;5077778;28;1059;-73
2020/12/30 08:00:47;;;;;;;;;;;;;;;21.04;35.00;99660.81;5077555;28;1997;-72
2020/12/30 08:03:14;;;;;;;;;;;;;;;21.04;35.07;99655.19;5077703;28;1012;-71
2020/12/30 08:05:44;;;;;;;;;;;;;;;21.04;35.15;99660.03;5077582;28;1000;-71
2020/12/30 08:08:10;;;;;;;;;;;;;;;21.02;34.99;99666.06;5077505;28;1357;-72
2020/12/30 08:10:35;;;;;;;;;;;;;;;21.03;35.14;99666.84;5077585;28;1067;-72
2020/12/30 08:13:11;;;;;;;;;;;;;;;21.03;35.02;99672.47;5077479;28;945;-72
2020/12/30 08:15:42;;;;;;;;;;;;;;;21.02;34.97;99674.50;5077422;28;933;-71
2020/12/30 08:18:07;;;;;;;;;;;;;;;21.02;35.04;99674.50;5077965;28;1314;-72
2020/12/30 08:20:37;;;;;;;;;;;;;;;21.04;34.87;99685.28;5077586;28;1956;-71
2020/12/30 08:23:02;;;;;;;;;;;;;;;21.04;34.94;99688.88;5077545;28;818;-72
2020/12/30 08:25:27;;;;;;;;;;;;;;;21.04;34.91;99691.66;5077105;28;975;-72
2020/12/30 08:27:53;;;;;;;;;;;;;;;21.06;34.81;99687.63;5077152;28;1246;-72
2020/12/30 08:30:18;;;;;;;;;;;;;;;21.06;34.85;99687.63;5077306;28;1047;-72
2020/12/30 08:33:09;;;;;;;;;;;;;;;21.05;34.89;99692.44;5077346;28;860;-72
2020/12/30 08:35:45;;;;;;;;;;;;;;;21.04;35.04;99688.88;5076979;28;814;-72
2020/12/30 08:38:20;;;;;;;;;;;;;;;21.04;35.01;99694.47;5077625;28;987;-72
2020/12/30 08:40:53;;;;;;;;;;;;;;;21.06;34.96;99694.03;5077079;28;1898;-71
2020/12/30 08:43:56;;;;;;;;;;;;;;;21.06;34.98;99696.84;5076880;28;825;-70
2020/12/30 08:46:26;;;;;;;;;;;;;;;21.06;34.95;99702.44;5045595;28;1614;-69
2020/12/30 08:48:52;;;;;;;;;;;;;;;21.07;35.11;99704.00;5076221;28;800;-71
2020/12/30 08:51:33;;;;;;;;;;;;;;;21.06;35.08;99710.88;5076889;28;919;-69
2020/12/30 08:53:59;;;;;;;;;;;;;;;21.07;35.21;99712.44;5076820;28;915;-71
2020/12/30 08:56:24;;;;;;;;;;;;;;;21.07;35.11;99712.44;5076534;28;1345;-71
2020/12/30 08:58:52;;;;;;;;;;;;;;;21.07;35.27;99718.03;5076682;28;916;-72
2020/12/30 09:01:35;;;;;;;;;;;;;;;21.06;34.97;99719.28;5076603;28;1963;-70
2020/12/30 09:04:11;;;;;;;;;;;;;;;21.07;35.10;99720.84;5076762;28;884;-72
2020/12/30 09:06:37;;;;;;;;;;;;;;;21.09;35.03;99721.19;5076454;28;1368;-71
2020/12/30 09:09:11;;;;;;;;;;;;;;;21.10;35.05;99725.59;5076662;28;877;-69
2020/12/30 09:11:38;;;;;;;;;;;;;;;21.11;35.13;99717.94;5076529;28;830;-69
2020/12/30 09:14:18;;;;;;;;;;;;;;;21.10;35.26;99719.19;5076625;28;897;-69
2020/12/30 09:16:53;;;;;;;;;;;;;;;21.10;35.29;99724.81;5076045;28;1353;-68
2020/12/30 09:19:19;;;;;;;;;;;;;;;21.13;35.30;99726.72;5076545;28;1961;-67
2020/12/30 09:21:45;;;;;;;;;;;;;;;21.14;35.39;99739.50;5076401;28;829;-69
2020/12/30 09:24:14;;;;;;;;;;;;;;;21.14;35.33;99737.47;5076266;28;829;-68
2020/12/30 09:26:39;;;;;;;;;;;;;;;21.13;35.30;99735.16;5076445;28;1290;-67
2020/12/30 09:29:16;;;;;;;;;;;;;;;21.13;35.26;99730.31;5076193;28;805;-67
2020/12/30 09:31:50;;;;;;;;;;;;;;;21.13;35.01;99732.34;5076345;28;828;-67
2020/12/30 09:34:17;;;;;;;;;;;;;;;21.15;34.96;99743.91;5076198;28;903;-66
2020/12/30 09:36:56;;;;;;;;;;;;;;;21.11;34.44;99743.19;5075929;28;1278;-65
2020/12/30 09:39:23;;;;;;;;;;;;;;;21.07;34.78;99742.53;5075850;28;1902;-70
2020/12/30 09:41:48;;;;;;;;;;;;;;;21.04;34.57;99749.81;5075901;28;813;-70
2020/12/30 09:44:13;;;;;;;;;;;;;;;21.04;34.52;99753.41;5075688;28;852;-70
2020/12/30 09:46:50;;;;;;;;;;;;;;;21.03;34.59;99739.81;5075675;28;1380;-69
2020/12/30 09:49:16;;;;;;;;;;;;;;;21.05;34.60;99742.97;5075698;28;871;-65
2020/12/30 09:51:41;;;;;;;;;;;;;;;21.04;34.60;99739.38;5076075;28;1062;-67
2020/12/30 09:54:06;;;;;;;;;;;;;;;21.04;34.58;99747.00;5075715;28;1015;-67
2020/12/30 09:56:32;;;;;;;;;;;;;;;21.02;34.63;99747.44;5075342;28;1405;-68
2020/12/30 09:58:57;;;;;;;;;;;;;;;21.00;34.59;99755.50;5076042;28;816;-68
2020/12/30 10:01:22;;;;;;;;;;;;;;;20.98;34.83;99749.53;5075319;28;1953;-67
2020/12/30 10:03:48;;;;;;;;;;;;;;;20.97;34.85;99750.00;5075424;28;865;-67
2020/12/30 10:06:13;;;;;;;;;;;;;;;20.97;34.92;99759.22;5075454;28;1332;-67
2020/12/30 10:08:39;;;;;;;;;;;;;;;20.95;34.82;99760.88;5075440;28;857;-67
2020/12/30 10:11:05;;;;;;;;;;;;;;;20.95;34.76;99761.66;5075534;28;885;-67
2020/12/30 10:13:30;;;;;;;;;;;;;;;20.95;34.60;99756.03;5075301;28;988;-68
2020/12/30 10:15:55;;;;;;;;;;;;;;;20.95;34.61;99761.66;5074943;28;1250;-67
2020/12/30 10:18:21;;;;;;;;;;;;;;;20.94;34.59;99760.09;5075293;28;848;-67
2020/12/30 10:20:46;;;;;;;;;;;;;;;20.94;34.46;99764.91;5075201;28;1954;-68
2020/12/30 10:23:11;;;;;;;;;;;;;;;20.93;34.51;99754.91;5075368;28;789;-67
2020/12/30 10:25:37;;;;;;;;;;;;;;;20.92;34.52;99764.53;5075510;28;979;-67
2020/12/30 10:28:02;;;;;;;;;;;;;;;20.93;34.52;99763.34;5075110;28;1361;-67
2020/12/30 10:30:27;;;;;;;;;;;;;;;20.92;34.59;99768.16;5076797;28;1063;-68
2020/12/30 10:32:52;;;;;;;;;;;;;;;20.94;34.51;99767.72;5076387;28;943;-67
2020/12/30 10:35:18;;;;;;;;;;;;;;;20.93;34.61;99766.13;5074907;28;798;-67
2020/12/30 10:37:43;;;;;;;;;;;;;;;20.93;34.69;99771.75;5075313;28;1270;-68
2020/12/30 10:40:08;;;;;;;;;;;;;;;20.92;34.68;99776.56;5075297;28;1902;-67
2020/12/30 10:42:34;;;;;;;;;;;;;;;20.93;34.67;99771.75;5075328;28;1043;-67
2020/12/30 10:44:59;;;;;;;;;;;;;;;20.93;34.76;99775.34;5074749;28;979;-67
2020/12/30 10:47:24;;;;;;;;;;;;;;;20.93;34.61;99774.56;5074909;28;1364;-68
2020/12/30 10:49:49;;;;;;;;;;;;;;;20.93;34.58;99774.56;5074855;28;903;-68
2020/12/30 10:52:15;;;;;;;;;;;;;;;20.92;33.97;99775.78;5075213;28;907;-67
2020/12/30 10:54:44;;;;;;;;;;;;;;;20.92;33.98;99772.97;5075067;28;852;-68
2020/12/30 10:57:09;;;;;;;;;;;;;;;20.94;34.29;99776.16;5075139;28;1262;-67
2020/12/30 10:59:34;;;;;;;;;;;;;;;20.95;34.25;99778.47;5075463;28;1953;-69
2020/12/30 11:02:01;;;;;;;;;;;;;;;20.97;34.29;99776.03;5075120;28;996;-69
2020/12/30 11:04:26;;;;;;;;;;;;;;;20.96;34.24;99770.88;5074900;28;856;-69
2020/12/30 11:06:51;;;;;;;;;;;;;;;20.98;34.42;99780.41;5074861;28;1266;-66
2020/12/30 11:09:17;;;;;;;;;;;;;;;21.00;34.55;99775.13;5074909;28;1026;-68
2020/12/30 11:11:42;;;;;;;;;;;;;;;21.02;34.47;99781.13;5075130;28;991;-68
2020/12/30 11:14:08;;;;;;;;;;;;;;;21.02;34.49;99781.13;5078980;28;813;-68
2020/12/30 11:16:33;;;;;;;;;;;;;;;21.05;34.62;99779.44;5079009;28;1266;-69
2020/12/30 11:18:58;;;;;;;;;;;;;;;21.07;34.51;99776.97;5078984;28;853;-69
2020/12/30 11:21:24;;;;;;;;;;;;;;;21.09;34.69;99779.34;5079551;28;1894;-69
2020/12/30 11:23:49;;;;;;;;;;;;;;;21.10;34.96;99776.09;5078800;28;1038;-72
2020/12/30 11:26:14;;;;;;;;;;;;;;;21.12;34.79;99773.63;5077359;28;1306;-71
2020/12/30 11:31:03;;;;;;;;;;;;;;;21.39;34.17;99775.31;5030115;28;1461;-71
2020/12/30 11:33:29;;;;;;;;;;;;;;;21.52;33.94;99781.78;5009982;28;821;-71
2020/12/30 11:35:54;;;;;;;;;;;;;;;21.62;33.74;99784.75;5009676;28;1290;-75
2020/12/30 11:38:19;;;;;;;;;;;;;;;21.68;33.71;99780.94;5009899;28;984;-67
2020/12/30 11:40:44;;;;;;;;;;;;;;;21.73;33.62;99780.38;5009660;28;1973;-67
2020/12/30 11:43:10;;;;;;;;;;;;;;;21.74;33.50;99779.13;5009812;28;948;-78
2020/12/30 11:45:35;;;;;;;;;;;;;;;21.78;33.27;99781.84;5009814;28;999;-70
2020/12/30 11:48:03;;;;;;;;;;;;;;;21.79;33.18;99781.41;5010722;28;1278;-75
2020/12/30 11:50:32;;;;;;;;;;;;;;;21.79;33.19;99780.63;5009795;28;855;-74
2020/12/30 11:52:57;;;;;;;;;;;;;;;21.80;33.30;99779.38;5009620;28;805;-67
2020/12/30 11:55:23;;;;;;;;;;;;;;;21.83;33.30;99784.09;5009161;28;797;-73
2020/12/30 11:57:48;;;;;;;;;;;;;;;21.85;33.52;99781.63;5010296;28;1302;-70
2020/12/30 12:00:13;;;;;;;;;;;;;;;21.87;33.44;99781.19;5007702;28;1955;-64
2020/12/30 12:02:39;;;;;;;;;;;;;;;21.86;32.99;99779.63;5008788;28;928;-66
2020/12/30 12:05:04;;;;;;;;;;;;;;;21.85;32.87;99792.88;5009409;28;829;-67
2020/12/30 12:07:30;;;;;;;;;;;;;;;21.84;32.77;99785.69;5008786;28;1357;-67
2020/12/30 12:09:56;;;;;;;;;;;;;;;21.83;32.89;99788.94;5009328;28;847;-67
2020/12/30 12:12:22;;;;;;;;;;;;;;;21.78;33.09;99785.47;5009249;28;825;-67
2020/12/30 12:14:48;;;;;;;;;;;;;;;21.75;32.96;99780.72;5008698;28;928;-66
2020/12/30 12:17:13;;;;;;;;;;;;;;;21.74;33.08;99781.94;5008664;28;1368;-67
2020/12/30 12:19:39;;;;;;;;;;;;;;;21.72;33.20;99781.63;5008565;28;1965;-67
2020/12/30 12:22:04;;;;;;;;;;;;;;;21.71;33.19;99785.63;5008774;28;793;-66
2020/12/30 12:24:29;;;;;;;;;;;;;;;21.71;33.04;99784.88;5008887;28;837;-67
2020/12/30 12:26:55;;;;;;;;;;;;;;;21.70;33.02;99788.91;5009274;28;1273;-67
2020/12/30 12:29:35;;;;;;;;;;;;;;;21.69;33.02;99787.34;5009438;28;865;-67
2020/12/30 12:32:08;;;;;;;;;;;;;;;21.67;33.25;99787.00;5008609;28;901;-65
2020/12/30 12:34:34;;;;;;;;;;;;;;;21.67;33.17;99784.97;5008979;28;806;-63
2020/12/30 12:37:00;;;;;;;;;;;;;;;21.69;33.15;99787.34;5008622;28;1427;-65
2020/12/30 12:39:25;;;;;;;;;;;;;;;21.70;33.14;99792.50;5008637;28;1906;-65
2020/12/30 12:41:52;;;;;;;;;;;;;;;21.70;33.13;99795.31;4998514;28;881;-71
2020/12/30 12:44:18;;;;;;;;;;;;;;;21.70;33.19;99792.50;4995339;28;834;-69
2020/12/30 12:46:44;;;;;;;;;;;;;;;21.70;33.02;99795.31;4993792;28;1320;-67
2020/12/30 12:49:10;;;;;;;;;;;;;;;21.65;32.68;99792.28;4995686;28;822;-66
2020/12/30 12:51:37;;;;;;;;;;;;;;;21.56;33.14;99802.13;4995411;28;881;-70
2020/12/30 12:54:05;;;;;;;;;;;;;;;21.54;33.10;99793.38;4995289;28;1310;-65
2020/12/30 12:56:31;;;;;;;;;;;;;;;21.55;33.11;99794.16;4994227;28;1345;-68
2020/12/30 12:58:57;;;;;;;;;;;;;;;21.55;33.19;99794.16;4995080;28;1902;-68
2020/12/30 13:01:23;;;;;;;;;;;;;;;21.57;33.21;99789.66;4995310;28;849;-66
2020/12/30 13:03:48;;;;;;;;;;;;;;;21.59;33.28;99786.41;4994253;28;833;-65
2020/12/30 13:06:14;;;;;;;;;;;;;;;21.59;32.98;99797.63;4994581;28;1414;-65